Time;durP1;ratioP1;P1;durP2;ratioP2;P2;SDS_P1;SDS_P2;PMS_P1;PMS_P2;Temp;Humidity;BMP_temperature;BMP_pressure;BME280_temperature;BME280_humidity;BME280_pressure;Samples;Min_cycle;Max_cycle;Signal;HPM_P1;HPM_P2
2023/04/07 00:00:53;;;;;;;16.77;6.63;;;8.30;99.90;;;;;;5075143;28;20115;-82
2023/04/07 00:03:20;;;;;;;25.23;8.10;;;8.30;99.90;;;;;;5074472;28;20031;-81
2023/04/07 00:05:46;;;;;;;36.97;9.32;;;8.20;99.90;;;;;;5073751;28;20035;-80
2023/04/07 00:08:12;;;;;;;19.60;8.10;;;8.20;99.90;;;;;;5074544;28;20423;-81
2023/04/07 00:10:38;;;;;;;19.90;7.87;;;8.20;99.90;;;;;;5073655;28;20356;-82
2023/04/07 00:13:04;;;;;;;19.97;8.27;;;8.20;99.90;;;;;;5074547;28;20336;-78
2023/04/07 00:15:29;;;;;;;18.38;7.13;;;8.20;99.90;;;;;;5073850;28;20024;-83
2023/04/07 00:17:55;;;;;;;23.90;7.67;;;8.20;99.90;;;;;;5073740;28;20016;-81
2023/04/07 00:20:21;;;;;;;21.00;8.00;;;8.20;99.90;;;;;;5073484;28;20032;-80
2023/04/07 00:22:47;;;;;;;18.33;7.80;;;8.20;99.90;;;;;;5073538;28;20024;-81
2023/04/07 00:25:13;;;;;;;16.80;7.27;;;8.20;99.90;;;;;;5073790;28;20115;-83
2023/04/07 00:27:39;;;;;;;15.37;7.63;;;8.20;99.90;;;;;;5073676;28;20051;-84
2023/04/07 00:30:06;;;;;;;22.90;9.63;;;8.20;99.90;;;;;;5074489;28;20032;-82
2023/04/07 00:32:31;;;;;;;;;;;8.20;99.90;;;;;;5073934;28;20111;-84
2023/04/07 00:34:57;;;;;;;20.08;9.27;;;8.20;99.90;;;;;;5075838;28;19955;-84
2023/04/07 00:37:24;;;;;;;28.93;10.33;;;8.20;99.90;;;;;;5078294;28;20479;-84
2023/04/07 00:39:50;;;;;;;;;;;8.20;99.90;;;;;;5078257;28;20021;-82
2023/04/07 00:42:16;;;;;;;29.00;9.80;;;8.20;99.90;;;;;;5077745;28;20003;-83
2023/04/07 00:44:42;;;;;;;26.52;9.88;;;8.20;99.90;;;;;;5078236;28;20463;-84
2023/04/07 00:47:08;;;;;;;27.03;10.40;;;8.20;99.90;;;;;;5066333;28;20124;-84
2023/04/07 00:49:35;;;;;;;23.63;10.67;;;8.30;99.90;;;;;;5074573;28;20078;-83
2023/04/07 00:52:01;;;;;;;26.17;10.20;;;8.30;99.90;;;;;;5078200;28;20033;-81
2023/04/07 00:54:29;;;;;;;26.60;9.77;;;8.30;99.90;;;;;;5078021;28;20309;-81
2023/04/07 00:56:56;;;;;;;20.75;9.52;;;8.20;99.90;;;;;;5077148;28;20024;-81
2023/04/07 00:59:22;;;;;;;27.70;9.00;;;8.20;99.90;;;;;;5077118;28;20025;-84
2023/04/07 01:01:56;;;;;;;24.30;9.97;;;8.20;99.90;;;;;;5077675;28;20031;-82
2023/04/07 01:04:32;;;;;;;23.60;9.02;;;8.20;99.90;;;;;;5077160;28;20028;-82
2023/04/07 01:07:43;;;;;;;28.90;8.23;;;8.20;99.90;;;;;;5064370;28;20316;-84
2023/04/07 01:10:14;;;;;;;26.88;8.48;;;8.20;99.90;;;;;;4996362;28;20034;-81
2023/04/07 01:13:01;;;;;;;28.98;9.13;;;8.20;99.90;;;;;;5066864;28;20070;-81
2023/04/07 01:15:29;;;;;;;22.23;9.25;;;8.20;99.90;;;;;;5063916;28;20096;-81
2023/04/07 01:18:06;;;;;;;25.13;9.60;;;8.20;99.90;;;;;;5078004;28;20048;-81
2023/04/07 01:20:32;;;;;;;;;;;8.30;99.90;;;;;;5063085;28;20412;-82
2023/04/07 01:23:01;;;;;;;20.98;7.63;;;8.30;99.90;;;;;;5077524;28;19949;-81
2023/04/07 01:25:48;;;;;;;18.77;7.72;;;8.20;99.90;;;;;;5077236;28;20032;-79
2023/04/07 01:28:26;;;;;;;12.07;6.50;;;8.20;99.90;;;;;;5077365;28;20072;-80
2023/04/07 01:30:55;;;;;;;16.42;7.93;;;8.20;99.90;;;;;;5064357;28;20025;-80
2023/04/07 01:33:22;;;;;;;14.65;7.68;;;8.20;99.90;;;;;;5077476;28;20031;-79
2023/04/07 01:35:50;;;;;;;19.05;7.25;;;8.20;99.90;;;;;;5077196;28;20107;-81
2023/04/07 01:38:16;;;;;;;14.98;8.15;;;8.30;99.90;;;;;;5077405;28;20415;-81
2023/04/07 01:40:43;;;;;;;17.95;8.13;;;8.30;99.90;;;;;;5076869;28;20099;-80
2023/04/07 01:43:10;;;;;;;25.52;9.10;;;8.20;99.90;;;;;;5076164;28;20025;-80
2023/04/07 01:45:37;;;;;;;14.35;6.90;;;8.20;99.90;;;;;;5077455;28;20130;-81
2023/04/07 01:48:07;;;;;;;13.93;6.47;;;8.20;99.90;;;;;;5074813;28;20035;-81
2023/04/07 01:50:33;;;;;;;15.95;7.53;;;8.20;99.90;;;;;;5076847;28;20427;-82
2023/04/07 01:53:00;;;;;;;19.10;6.63;;;8.10;99.90;;;;;;5076798;28;20027;-80
2023/04/07 01:55:26;;;;;;;10.35;5.93;;;8.20;99.90;;;;;;5077092;28;20021;-78
2023/04/07 01:57:54;;;;;;;15.70;6.33;;;8.20;99.90;;;;;;5077088;28;20130;-79
2023/04/07 02:00:20;;;;;;;17.30;6.10;;;8.20;99.90;;;;;;5075853;28;20484;-75
2023/04/07 02:02:48;;;;;;;17.87;6.53;;;8.20;99.90;;;;;;5076664;28;20020;-80
2023/04/07 02:05:19;;;;;;;15.95;5.70;;;8.20;99.90;;;;;;5067768;28;20028;-79
2023/04/07 02:08:10;;;;;;;17.10;5.40;;;8.20;99.90;;;;;;5075993;28;20351;-78
2023/04/07 02:10:37;;;;;;;13.18;5.55;;;8.20;99.90;;;;;;5074998;28;20030;-80
2023/04/07 02:13:07;;;;;;;17.35;5.72;;;8.20;99.90;;;;;;5076375;28;20026;-79
2023/04/07 02:15:35;;;;;;;14.23;5.65;;;8.20;99.90;;;;;;5075697;28;20013;-80
2023/04/07 02:18:02;;;;;;;16.27;6.07;;;8.30;99.90;;;;;;5075216;28;20116;-81
2023/04/07 02:20:28;;;;;;;;;;;8.30;99.90;;;;;;5075812;28;20415;-82
2023/04/07 02:22:55;;;;;;;12.00;5.75;;;8.30;99.90;;;;;;5076633;28;19908;-81
2023/04/07 02:25:29;;;;;;;15.43;5.63;;;8.30;99.90;;;;;;5074991;28;20037;-81
2023/04/07 02:27:57;;;;;;;20.10;5.60;;;8.40;99.90;;;;;;5076351;28;20052;-83
2023/04/07 02:30:23;;;;;;;9.82;5.05;;;8.30;99.90;;;;;;5074846;28;20327;-81
2023/04/07 02:32:49;;;;;;;11.43;5.18;;;8.30;99.90;;;;;;5075321;28;20304;-83
2023/04/07 02:35:15;;;;;;;16.67;5.53;;;8.30;99.90;;;;;;5074652;28;20054;-81
2023/04/07 02:37:42;;;;;;;16.70;5.35;;;8.30;99.90;;;;;;5076540;28;20438;-81
2023/04/07 02:40:08;;;;;;;18.30;5.07;;;8.30;99.90;;;;;;5075899;28;20039;-81
2023/04/07 02:42:35;;;;;;;14.80;4.85;;;8.30;99.90;;;;;;5075733;28;20009;-82
2023/04/07 02:45:01;;;;;;;;;;;8.30;99.90;;;;;;5075287;28;20415;-82
2023/04/07 02:47:27;;;;;;;16.05;4.88;;;8.30;99.90;;;;;;5074666;28;19911;-81
2023/04/07 02:49:52;;;;;;;22.33;5.20;;;8.30;99.90;;;;;;5074692;28;20047;-80
2023/04/07 02:52:18;;;;;;;9.43;4.43;;;8.30;99.90;;;;;;5074281;28;20035;-81
2023/04/07 02:54:44;;;;;;;20.07;4.50;;;8.30;99.90;;;;;;5075999;28;20028;-80
2023/04/07 02:57:10;;;;;;;18.37;5.40;;;8.30;99.90;;;;;;5074766;28;20032;-80
2023/04/07 02:59:35;;;;;;;15.10;4.93;;;8.30;99.90;;;;;;5075155;28;20325;-80
2023/04/07 03:02:01;;;;;;;13.97;5.00;;;8.30;99.90;;;;;;5074559;28;20051;-80
2023/04/07 03:04:27;;;;;;;27.67;5.60;;;8.30;99.90;;;;;;5075371;28;20400;-80
2023/04/07 03:06:52;;;;;;;9.17;4.43;;;8.30;99.90;;;;;;5075708;28;20028;-78
2023/04/07 03:09:18;;;;;;;7.87;4.70;;;8.30;99.90;;;;;;5075145;28;20036;-79
2023/04/07 03:11:44;;;;;;;18.90;4.00;;;8.20;99.90;;;;;;5075457;28;20060;-72
2023/04/07 03:14:09;;;;;;;18.13;5.57;;;8.20;99.90;;;;;;5075373;28;20024;-78
2023/04/07 03:16:35;;;;;;;11.50;4.40;;;8.10;99.90;;;;;;5073707;28;20124;-78
2023/04/07 03:19:01;;;;;;;11.63;5.27;;;8.20;99.90;;;;;;5074453;28;20028;-77
2023/04/07 03:21:27;;;;;;;20.83;5.60;;;8.10;99.90;;;;;;5075047;28;20036;-76
2023/04/07 03:23:54;;;;;;;13.88;6.03;;;8.20;99.90;;;;;;5075451;28;20024;-76
2023/04/07 03:26:20;;;;;;;9.45;5.03;;;8.20;99.90;;;;;;5073776;28;20327;-79
2023/04/07 03:28:46;;;;;;;15.80;5.97;;;8.20;99.90;;;;;;5075065;28;20037;-71
2023/04/07 03:31:11;;;;;;;10.27;5.17;;;8.10;99.90;;;;;;5074018;28;20029;-75
2023/04/07 03:33:37;;;;;;;15.67;5.50;;;8.10;99.90;;;;;;5074862;28;20423;-72
2023/04/07 03:36:03;;;;;;;17.87;5.93;;;8.10;99.90;;;;;;5074033;28;20112;-80
2023/04/07 03:38:29;;;;;;;9.00;4.07;;;8.10;99.90;;;;;;5073551;28;20509;-75
2023/04/07 03:40:55;;;;;;;15.48;3.40;;;8.10;99.90;;;;;;5074943;28;20040;-77
2023/04/07 03:43:21;;;;;;;12.50;3.93;;;8.00;99.90;;;;;;5074849;28;20028;-80
2023/04/07 03:45:47;;;;;;;9.52;3.28;;;8.00;99.90;;;;;;5074005;28;20039;-81
2023/04/07 03:48:13;;;;;;;11.70;2.67;;;7.90;99.90;;;;;;5074089;28;20416;-70
2023/04/07 03:50:39;;;;;;;10.03;3.57;;;7.90;99.90;;;;;;5074351;28;20052;-78
2023/04/07 03:53:05;;;;;;;11.90;3.50;;;8.00;99.90;;;;;;5073904;28;20032;-78
2023/04/07 03:55:32;;;;;;;10.43;3.47;;;7.90;99.90;;;;;;5073451;28;20030;-79
2023/04/07 03:57:57;;;;;;;15.52;4.47;;;7.90;99.90;;;;;;5075294;28;20091;-82
2023/04/07 04:00:23;;;;;;;10.30;3.47;;;8.00;99.90;;;;;;5073297;28;20056;-80
2023/04/07 04:02:49;;;;;;;10.30;3.13;;;7.90;99.90;;;;;;5075133;28;20033;-74
2023/04/07 04:05:15;;;;;;;10.97;3.10;;;7.90;99.90;;;;;;5074851;28;20028;-72
2023/04/07 04:07:40;;;;;;;13.00;4.63;;;8.00;99.90;;;;;;5068413;28;20419;-79
2023/04/07 04:10:07;;;;;;;10.20;3.57;;;8.00;99.90;;;;;;5066736;28;20078;-81
2023/04/07 04:12:32;;;;;;;20.38;4.57;;;8.00;99.90;;;;;;5078830;28;20074;-80
2023/04/07 04:14:58;;;;;;;20.53;3.63;;;8.00;99.90;;;;;;5078516;28;20024;-73
2023/04/07 04:17:25;;;;;;;12.70;3.70;;;7.90;99.90;;;;;;5077717;28;20330;-78
2023/04/07 04:19:51;;;;;;;9.15;3.72;;;7.90;99.90;;;;;;5077198;28;20085;-73
2023/04/07 04:22:17;;;;;;;8.00;3.40;;;7.90;99.90;;;;;;5078677;28;20376;-75
2023/04/07 04:24:43;;;;;;;20.17;4.67;;;7.90;99.90;;;;;;5078749;28;20467;-78
2023/04/07 04:27:09;;;;;;;15.18;3.83;;;7.90;99.90;;;;;;5078451;28;20338;-78
2023/04/07 04:29:34;;;;;;;15.60;4.07;;;8.00;99.90;;;;;;5078653;28;20028;-67
2023/04/07 04:32:00;;;;;;;15.77;3.97;;;8.00;99.90;;;;;;5077186;28;20032;-76
2023/04/07 04:34:26;;;;;;;13.40;4.00;;;8.00;99.90;;;;;;5078696;28;20028;-77
2023/04/07 04:36:52;;;;;;;6.67;2.73;;;7.90;99.90;;;;;;5078407;28;20060;-78
2023/04/07 04:39:17;;;;;;;13.60;3.60;;;8.00;99.90;;;;;;5078689;28;20021;-79
2023/04/07 04:41:44;;;;;;;10.77;3.57;;;8.00;99.90;;;;;;5078112;28;20029;-80
2023/04/07 04:44:11;;;;;;;8.73;3.33;;;7.90;99.90;;;;;;5078459;28;20024;-73
2023/04/07 04:46:36;;;;;;;9.55;3.53;;;8.00;99.90;;;;;;5078273;28;20031;-76
2023/04/07 04:49:02;;;;;;;13.43;3.87;;;7.90;99.90;;;;;;5077932;28;20111;-75
2023/04/07 04:51:28;;;;;;;13.27;3.73;;;7.90;99.90;;;;;;5077846;28;20025;-77
2023/04/07 04:53:54;;;;;;;13.73;4.33;;;7.90;99.90;;;;;;5077923;28;20021;-79
2023/04/07 04:56:20;;;;;;;13.07;4.43;;;7.90;99.90;;;;;;5078254;28;20028;-80
2023/04/07 04:58:46;;;;;;;18.67;4.13;;;7.90;99.90;;;;;;5077783;28;20684;-80
2023/04/07 05:01:12;;;;;;;26.50;4.57;;;7.90;99.90;;;;;;5077951;28;20022;-81
2023/04/07 05:03:38;;;;;;;10.93;3.58;;;7.90;99.90;;;;;;5077931;28;20029;-78
2023/04/07 05:06:05;;;;;;;9.70;3.37;;;7.90;99.90;;;;;;5076490;28;20308;-82
2023/04/07 05:08:30;;;;;;;7.32;3.05;;;7.90;99.90;;;;;;5077198;28;20028;-80
2023/04/07 05:10:56;;;;;;;15.50;3.67;;;7.90;99.90;;;;;;5077228;28;20090;-78
2023/04/07 05:13:23;;;;;;;14.73;3.83;;;7.90;99.90;;;;;;5077861;28;20398;-79
2023/04/07 05:15:48;;;;;;;20.58;4.20;;;7.90;99.90;;;;;;5077734;28;20024;-80
2023/04/07 05:18:14;;;;;;;13.47;4.53;;;7.90;99.90;;;;;;5076420;28;20082;-65
2023/04/07 05:20:40;;;;;;;20.13;3.87;;;7.90;99.90;;;;;;5076568;28;20411;-83
2023/04/07 05:23:06;;;;;;;8.73;4.00;;;7.90;99.90;;;;;;5077420;28;20029;-80
2023/04/07 05:25:32;;;;;;;10.50;3.40;;;7.90;99.90;;;;;;5077569;28;20025;-79
2023/04/07 05:28:01;;;;;;;13.07;3.38;;;7.90;99.90;;;;;;5077190;28;20047;-82
2023/04/07 05:30:26;;;;;;;8.68;3.47;;;7.90;99.90;;;;;;5078203;28;20120;-81
2023/04/07 05:32:53;;;;;;;9.63;3.90;;;7.90;99.90;;;;;;5076937;28;20530;-84
2023/04/07 05:35:18;;;;;;;12.63;4.18;;;7.90;99.90;;;;;;5077308;28;20016;-85
2023/04/07 05:37:44;;;;;;;7.97;3.07;;;7.90;99.90;;;;;;5077126;28;20020;-87
2023/04/07 05:40:10;;;;;;;11.70;3.60;;;7.90;99.90;;;;;;5077979;28;20411;-81
2023/04/07 05:42:36;;;;;;;13.60;3.72;;;7.90;99.90;;;;;;5076743;28;20108;-69
2023/04/07 05:45:02;;;;;;;15.60;4.00;;;7.90;99.90;;;;;;5077908;28;20112;-78
2023/04/07 05:47:28;;;;;;;21.88;3.55;;;7.90;99.90;;;;;;5077961;28;20048;-84
2023/04/07 05:49:54;;;;;;;11.73;3.60;;;7.90;99.90;;;;;;5077960;28;20052;-78
2023/04/07 05:52:19;;;;;;;13.67;3.47;;;7.90;99.90;;;;;;5077514;28;20025;-84
2023/04/07 05:54:45;;;;;;;10.40;4.03;;;7.90;99.90;;;;;;5078135;28;20021;-81
2023/04/07 05:57:11;;;;;;;15.63;4.23;;;8.00;99.90;;;;;;5077563;28;20035;-84
2023/04/07 05:59:37;;;;;;;12.80;3.50;;;8.00;99.90;;;;;;5077596;28;20036;-81
2023/04/07 06:02:03;;;;;;;10.40;3.57;;;8.00;99.90;;;;;;5075722;28;20391;-83
2023/04/07 06:04:29;;;;;;;12.40;3.67;;;8.00;99.90;;;;;;5077513;28;20106;-86
2023/04/07 06:06:55;;;;;;;9.70;3.23;;;8.00;99.90;;;;;;5076499;28;20071;-84
2023/04/07 06:09:21;;;;;;;13.50;3.60;;;8.00;99.90;;;;;;5075800;28;20028;-82
2023/04/07 06:11:47;;;;;;;16.70;3.70;;;8.00;99.90;;;;;;5076886;28;20381;-83
2023/04/07 06:14:13;;;;;;;21.80;5.03;;;8.00;99.90;;;;;;5076907;28;20052;-84
2023/04/07 06:16:39;;;;;;;17.10;4.47;;;8.00;99.90;;;;;;5076508;28;20009;-84
2023/04/07 06:19:06;;;;;;;8.53;3.70;;;8.00;99.90;;;;;;5075678;28;20016;-83
2023/04/07 06:21:32;;;;;;;12.23;3.30;;;8.00;99.90;;;;;;5075504;28;20024;-82
2023/04/07 06:23:58;;;;;;;8.65;4.00;;;8.10;99.90;;;;;;5077149;28;20336;-83
2023/04/07 06:26:24;;;;;;;13.83;4.57;;;8.10;99.90;;;;;;5075466;28;20032;-81
2023/04/07 06:28:50;;;;;;;13.85;4.47;;;8.10;99.90;;;;;;5076503;28;20045;-84
2023/04/07 06:31:17;;;;;;;14.63;4.17;;;8.10;99.90;;;;;;5075388;28;20033;-80
2023/04/07 06:33:44;;;;;;;12.10;4.10;;;8.00;99.90;;;;;;5074754;28;20111;-84
2023/04/07 06:36:12;;;;;;;12.23;4.13;;;8.00;99.90;;;;;;5076977;28;20350;-73
2023/04/07 06:38:38;;;;;;;13.95;3.20;;;8.00;99.90;;;;;;5074905;28;20031;-83
2023/04/07 06:41:05;;;;;;;5.60;3.00;;;8.00;99.90;;;;;;5075814;28;20029;-86
2023/04/07 06:43:30;;;;;;;5.63;2.72;;;8.00;99.90;;;;;;5074845;28;20419;-79
2023/04/07 06:45:56;;;;;;;10.23;3.17;;;8.00;99.90;;;;;;5076059;28;20039;-73
2023/04/07 06:48:22;;;;;;;10.83;2.80;;;8.00;99.90;;;;;;5076448;28;20036;-81
2023/04/07 06:50:48;;;;;;;18.20;3.50;;;8.00;99.90;;;;;;5076039;28;20103;-83
2023/04/07 06:53:14;;;;;;;13.75;3.42;;;8.00;99.90;;;;;;5076128;28;20024;-82
2023/04/07 06:55:40;;;;;;;11.60;4.03;;;8.00;99.90;;;;;;5075995;28;20016;-83
2023/04/07 06:58:06;;;;;;;6.30;1.93;;;8.10;99.90;;;;;;5076044;28;20020;-77
2023/04/07 07:00:32;;;;;;;9.27;3.37;;;8.00;99.90;;;;;;5076022;28;20469;-80
2023/04/07 07:02:58;;;;;;;12.97;2.87;;;8.10;99.90;;;;;;5075959;28;20350;-79
2023/04/07 07:05:24;;;;;;;8.47;2.30;;;8.10;99.90;;;;;;5075195;28;20028;-78
2023/04/07 07:07:50;;;;;;;13.65;3.15;;;8.10;99.90;;;;;;5075701;28;20020;-77
2023/04/07 07:10:16;;;;;;;4.13;2.25;;;8.10;99.90;;;;;;5074345;28;20028;-80
2023/04/07 07:12:42;;;;;;;15.20;2.70;;;8.20;99.90;;;;;;5073994;28;20039;-79
2023/04/07 07:15:08;;;;;;;6.93;2.87;;;8.20;99.90;;;;;;5075723;28;20017;-78
2023/04/07 07:17:34;;;;;;;2.97;2.30;;;8.20;99.90;;;;;;5075293;28;20403;-79
2023/04/07 07:20:00;;;;;;;17.63;3.03;;;8.20;99.90;;;;;;5073145;28;20048;-78
2023/04/07 07:22:26;;;;;;;10.40;2.27;;;8.30;99.90;;;;;;5074722;28;20071;-78
2023/04/07 07:24:51;;;;;;;11.20;2.93;;;8.30;99.90;;;;;;5074465;28;20024;-79
2023/04/07 07:27:17;;;;;;;10.13;3.03;;;8.30;99.90;;;;;;5074532;28;20109;-80
2023/04/07 07:29:43;;;;;;;7.83;2.50;;;8.30;99.90;;;;;;5059119;28;20167;-78
2023/04/07 07:32:09;;;;;;;5.33;2.40;;;8.30;99.90;;;;;;5074242;28;20411;-78
2023/04/07 07:34:35;;;;;;;11.90;2.47;;;8.30;99.90;;;;;;5073485;28;20020;-77
2023/04/07 07:37:01;;;;;;;6.60;2.33;;;8.30;99.90;;;;;;5074224;28;20070;-80
2023/04/07 07:39:28;;;;;;;13.02;2.60;;;8.30;99.90;;;;;;5072693;28;20031;-79
2023/04/07 07:41:55;;;;;;;10.88;2.22;;;8.40;99.90;;;;;;5072715;28;20409;-78
2023/04/07 07:44:21;;;;;;;5.93;2.58;;;8.40;99.90;;;;;;5072684;28;20123;-77
2023/04/07 07:46:48;;;;;;;8.68;2.40;;;8.40;99.90;;;;;;5073314;28;20090;-81
2023/04/07 07:49:14;;;;;;;12.30;2.42;;;8.40;99.90;;;;;;5074950;28;20531;-76
2023/04/07 07:51:40;;;;;;;8.37;3.13;;;8.40;99.90;;;;;;5073783;28;20119;-78
2023/04/07 07:54:06;;;;;;;10.03;2.83;;;8.50;99.90;;;;;;5074565;28;20059;-79
2023/04/07 07:56:31;;;;;;;12.03;2.97;;;8.50;99.90;;;;;;5074959;28;20254;-77
2023/04/07 07:58:57;;;;;;;9.30;2.80;;;8.50;99.90;;;;;;5073224;28;20082;-74
2023/04/07 08:01:23;;;;;;;7.07;1.90;;;8.60;99.90;;;;;;5074967;28;20020;-81
2023/04/07 08:03:49;;;;;;;7.27;2.97;;;8.60;99.90;;;;;;5074757;28;20036;-76
2023/04/07 08:06:15;;;;;;;8.40;2.70;;;8.60;99.90;;;;;;5073855;28;20029;-79
2023/04/07 08:08:41;;;;;;;14.40;2.45;;;8.70;99.90;;;;;;5073736;28;20028;-77
2023/04/07 08:11:06;;;;;;;12.73;2.03;;;8.80;99.90;;;;;;5074207;28;20431;-73
2023/04/07 08:13:32;;;;;;;13.10;2.47;;;8.80;99.90;;;;;;5074779;28;20039;-80
2023/04/07 08:15:58;;;;;;;12.33;2.67;;;8.80;99.90;;;;;;5074894;28;20021;-79
2023/04/07 08:18:24;;;;;;;11.87;2.17;;;8.80;99.90;;;;;;5073218;28;20024;-81
2023/04/07 08:20:50;;;;;;;10.37;1.70;;;8.70;99.90;;;;;;5073771;28;20036;-77
2023/04/07 08:23:16;;;;;;;3.78;1.48;;;8.80;99.90;;;;;;5073064;28;20565;-77
2023/04/07 08:25:42;;;;;;;5.67;2.00;;;8.80;99.90;;;;;;5073673;28;20028;-80
2023/04/07 08:28:07;;;;;;;5.43;1.67;;;8.90;99.90;;;;;;5074257;28;20054;-78
2023/04/07 08:30:33;;;;;;;4.93;1.97;;;8.90;99.90;;;;;;5074567;28;20107;-64
2023/04/07 08:32:59;;;;;;;7.63;1.70;;;8.90;99.90;;;;;;5074671;28;20021;-77
2023/04/07 08:35:25;;;;;;;4.97;1.57;;;8.80;99.90;;;;;;5073291;28;20099;-81
2023/04/07 08:37:51;;;;;;;4.30;1.40;;;8.90;99.90;;;;;;5074866;28;20078;-83
2023/04/07 08:40:16;;;;;;;7.30;1.40;;;9.00;99.90;;;;;;5074195;28;20387;-81
2023/04/07 08:42:48;;;;;;;5.67;2.00;;;8.90;99.90;;;;;;5073448;28;20108;-80
2023/04/07 08:45:16;;;;;;;5.18;1.58;;;9.00;99.90;;;;;;5074289;28;20052;-81
2023/04/07 08:47:43;;;;;;;6.40;1.70;;;9.10;99.90;;;;;;5074983;28;20023;-80
2023/04/07 08:50:10;;;;;;;3.85;1.38;;;9.10;99.90;;;;;;5072743;28;20316;-82
2023/04/07 08:52:51;;;;;;;7.05;2.00;;;9.10;99.90;;;;;;5073167;28;20044;-76
2023/04/07 08:55:18;;;;;;;5.72;1.95;;;9.20;99.90;;;;;;5074407;28;20074;-81
2023/04/07 08:57:45;;;;;;;11.90;1.75;;;9.40;99.90;;;;;;5077976;28;20025;-81
2023/04/07 09:00:11;;;;;;;5.88;1.95;;;9.50;99.90;;;;;;5076926;28;20025;-79
2023/04/07 09:02:46;;;;;;;4.88;1.45;;;9.50;99.90;;;;;;5077682;28;20411;-80
2023/04/07 09:05:13;;;;;;;4.00;1.17;;;9.40;99.90;;;;;;5076957;28;20033;-82
2023/04/07 09:07:39;;;;;;;2.67;1.42;;;9.40;99.90;;;;;;5076868;28;20312;-77
2023/04/07 09:10:06;;;;;;;1.63;1.20;;;9.40;99.90;;;;;;5076713;28;20426;-79
2023/04/07 09:12:33;;;;;;;13.27;2.00;;;9.20;99.90;;;;;;5077374;28;20442;-81
2023/04/07 09:14:59;;;;;;;3.63;1.60;;;9.30;99.90;;;;;;5077682;28;20029;-82
2023/04/07 09:17:28;;;;;;;6.72;1.92;;;9.30;99.90;;;;;;5076825;28;20033;-80
2023/04/07 09:19:58;;;;;;;7.60;1.50;;;9.30;99.90;;;;;;5077459;28;20024;-79
2023/04/07 09:22:46;;;;;;;3.28;1.27;;;9.30;99.90;;;;;;5077441;28;20053;-81
2023/04/07 09:25:16;;;;;;;3.72;1.58;;;9.20;99.90;;;;;;5077155;28;20059;-77
2023/04/07 09:27:58;;;;;;;5.57;1.30;;;9.20;99.90;;;;;;5077414;28;20462;-72
2023/04/07 09:30:24;;;;;;;5.82;1.70;;;9.20;99.90;;;;;;5063556;28;20028;-82
2023/04/07 09:32:50;;;;;;;7.07;1.60;;;9.30;99.90;;;;;;5077584;28;20081;-77
2023/04/07 09:35:16;;;;;;;5.43;1.55;;;9.20;99.90;;;;;;5076895;28;20062;-78
2023/04/07 09:37:42;;;;;;;5.50;1.77;;;9.20;99.90;;;;;;5077459;28;20103;-79
2023/04/07 09:40:08;;;;;;;7.07;1.27;;;9.20;99.90;;;;;;5075664;28;20063;-68
2023/04/07 09:42:36;;;;;;;3.97;1.33;;;9.10;99.90;;;;;;5077298;28;20618;-82
2023/04/07 09:45:02;;;;;;;3.60;1.52;;;9.20;99.90;;;;;;5076865;28;20320;-76
2023/04/07 09:47:30;;;;;;;5.90;1.40;;;9.20;99.90;;;;;;5077390;28;20024;-76
2023/04/07 09:49:57;;;;;;;5.72;1.38;;;9.30;99.90;;;;;;5077362;28;20067;-71
2023/04/07 09:52:25;;;;;;;;;;;9.30;99.90;;;;;;5076103;28;20047;-81
2023/04/07 09:54:51;;;;;;;3.72;1.20;;;9.30;99.90;;;;;;5076122;28;20268;-79
2023/04/07 09:57:17;;;;;;;4.13;1.50;;;9.40;99.90;;;;;;5076760;28;20016;-78
2023/04/07 09:59:44;;;;;;;1.80;1.07;;;9.50;99.90;;;;;;5076041;28;20063;-76
2023/04/07 10:02:11;;;;;;;3.53;1.08;;;9.60;99.90;;;;;;5076555;28;20327;-81
2023/04/07 10:04:37;;;;;;;;;;;9.60;99.90;;;;;;5076356;28;20064;-78
2023/04/07 10:07:04;;;;;;;7.93;1.42;;;9.60;99.90;;;;;;5077045;28;20003;-80
2023/04/07 10:09:30;;;;;;;8.52;1.63;;;9.80;99.90;;;;;;5069369;28;20024;-71
2023/04/07 10:11:58;;;;;;;5.47;1.65;;;9.70;99.90;;;;;;5061471;28;20024;-79
2023/04/07 10:14:30;;;;;;;3.10;1.17;;;9.50;99.90;;;;;;5076549;28;20028;-80
2023/04/07 10:16:56;;;;;;;9.90;1.48;;;9.50;99.90;;;;;;5075717;28;20024;-81
2023/04/07 10:19:23;;;;;;;3.45;1.25;;;9.60;99.90;;;;;;5075439;28;20027;-73
2023/04/07 10:21:51;;;;;;;8.70;1.73;;;9.70;99.90;;;;;;5076716;28;20024;-75
2023/04/07 10:24:51;;;;;;;7.40;1.75;;;9.60;99.90;;;;;;5075355;28;20028;-79
2023/04/07 10:27:21;;;;;;;8.18;1.17;;;9.60;99.90;;;;;;5065064;28;20048;-78
2023/04/07 10:29:51;;;;;;;4.45;1.65;;;9.60;99.90;;;;;;5074921;28;20028;-63
2023/04/07 10:32:17;;;;;;;7.95;1.90;;;9.50;99.90;;;;;;5076273;28;20446;-63
2023/04/07 10:34:49;;;;;;;4.13;1.83;;;9.50;99.90;;;;;;5076530;28;20021;-83
2023/04/07 10:37:21;;;;;;;5.50;1.48;;;9.60;99.90;;;;;;5062988;28;20033;-64
2023/04/07 10:40:10;;;;;;;1.45;0.93;;;9.60;99.90;;;;;;5076153;28;20434;-63
2023/04/07 10:42:39;;;;;;;13.95;1.83;;;9.60;99.90;;;;;;5064588;28;20028;-63
2023/04/07 10:45:07;;;;;;;3.83;1.42;;;9.50;99.90;;;;;;5075806;28;20107;-63
2023/04/07 10:47:35;;;;;;;6.13;1.40;;;9.70;99.90;;;;;;5076151;28;20024;-64
2023/04/07 10:50:19;;;;;;;6.82;1.13;;;9.70;99.90;;;;;;5075956;28;20145;-63
2023/04/07 10:52:47;;;;;;;2.10;1.27;;;9.70;99.90;;;;;;5063988;28;20032;-63
2023/04/07 10:55:29;;;;;;;2.15;1.05;;;9.60;99.90;;;;;;5075295;28;20024;-63
2023/04/07 10:58:28;;;;;;;3.72;1.30;;;9.50;99.90;;;;;;5076131;28;20062;-63
2023/04/07 11:01:00;;;;;;;5.53;2.05;;;9.50;99.90;;;;;;4993918;28;20043;-63
2023/04/07 11:03:29;;;;;;;4.30;1.30;;;9.60;99.90;;;;;;4994208;28;20030;-63
2023/04/07 11:06:05;;;;;;;5.45;1.10;;;9.70;99.90;;;;;;4994149;28;20409;-63
2023/04/07 11:08:38;;;;;;;8.32;1.85;;;9.70;99.90;;;;;;4994114;28;20030;-63
2023/04/07 11:11:10;;;;;;;6.53;2.22;;;9.60;99.90;;;;;;4990188;28;20110;-81
2023/04/07 11:13:50;;;;;;;9.43;2.20;;;9.70;99.90;;;;;;4993423;28;20022;-63
2023/04/07 11:16:19;;;;;;;4.68;2.15;;;9.60;99.90;;;;;;4992612;28;20038;-63
2023/04/07 11:18:49;;;;;;;8.07;2.13;;;9.70;99.90;;;;;;4973563;28;20027;-63
2023/04/07 11:21:18;;;;;;;9.98;2.40;;;9.80;99.90;;;;;;4987959;28;20385;-64
2023/04/07 11:23:46;;;;;;;8.57;2.13;;;9.80;99.90;;;;;;4993831;28;20065;-63
2023/04/07 11:26:13;;;;;;;10.45;2.15;;;10.00;99.90;;;;;;4993766;28;20058;-63
2023/04/07 11:28:46;;;;;;;13.18;2.47;;;10.00;99.90;;;;;;4993545;28;20054;-64
2023/04/07 11:31:20;;;;;;;4.45;2.00;;;10.10;99.90;;;;;;4993731;28;20038;-63
2023/04/07 11:33:52;;;;;;;6.72;1.80;;;10.20;99.90;;;;;;4993634;28;20061;-63
2023/04/07 11:36:27;;;;;;;10.65;2.58;;;10.10;99.90;;;;;;5029579;28;20408;-64
2023/04/07 11:38:54;;;;;;;9.50;2.47;;;10.20;99.90;;;;;;5074738;28;20423;-63
2023/04/07 11:41:20;;;;;;;8.73;1.80;;;10.50;99.90;;;;;;5075026;28;20111;-64
2023/04/07 11:43:46;;;;;;;6.17;1.90;;;10.40;99.90;;;;;;5073664;28;20108;-63
2023/04/07 11:46:14;;;;;;;5.87;1.80;;;10.30;99.90;;;;;;5075425;28;20031;-63
2023/04/07 11:48:42;;;;;;;7.53;1.98;;;10.10;99.90;;;;;;5074934;28;20038;-63
2023/04/07 11:51:26;;;;;;;3.78;2.10;;;10.00;99.90;;;;;;5075078;28;20060;-63
2023/04/07 11:53:56;;;;;;;9.57;2.63;;;9.90;99.90;;;;;;5074957;28;20017;-63
2023/04/07 11:56:21;;;;;;;10.48;2.15;;;9.90;99.90;;;;;;5074923;28;20025;-63
2023/04/07 11:58:52;;;;;;;5.67;2.33;;;9.80;99.90;;;;;;5074850;28;20071;-64
2023/04/07 12:01:18;;;;;;;9.13;2.08;;;9.70;99.90;;;;;;5074817;28;20470;-79
2023/04/07 12:04:01;;;;;;;9.05;1.85;;;9.60;99.90;;;;;;5074621;28;20028;-63
2023/04/07 12:06:40;;;;;;;5.75;2.45;;;9.50;99.90;;;;;;5074850;28;20024;-63
2023/04/07 12:09:08;;;;;;;10.40;2.28;;;9.50;99.90;;;;;;5074546;28;20311;-63
2023/04/07 12:11:38;;;;;;;9.90;2.25;;;9.50;99.90;;;;;;5074639;28;20025;-63
2023/04/07 12:14:05;;;;;;;8.68;2.67;;;9.50;99.90;;;;;;5074945;28;20315;-63
2023/04/07 12:16:31;;;;;;;5.90;2.83;;;9.50;99.90;;;;;;5074639;28;20048;-63
2023/04/07 12:18:57;;;;;;;6.88;2.58;;;9.50;99.90;;;;;;5074989;28;20033;-63
2023/04/07 12:21:25;;;;;;;10.10;2.43;;;9.60;99.90;;;;;;5074536;28;20033;-63
2023/04/07 12:23:51;;;;;;;5.93;3.08;;;9.50;99.90;;;;;;5073260;28;20619;-63
2023/04/07 12:26:17;;;;;;;7.57;2.20;;;9.60;99.90;;;;;;5073490;28;20119;-63
2023/04/07 12:28:42;;;;;;;7.10;2.60;;;9.70;99.90;;;;;;5074316;28;20049;-63
2023/04/07 12:31:09;;;;;;;3.90;1.93;;;9.80;99.90;;;;;;5075561;28;20323;-63
2023/04/07 12:33:34;;;;;;;4.97;2.00;;;9.80;99.90;;;;;;5078225;28;20438;-63
2023/04/07 12:36:00;;;;;;;6.43;1.80;;;9.70;99.90;;;;;;5078504;28;20249;-63
2023/04/07 12:38:27;;;;;;;3.37;1.50;;;9.70;99.90;;;;;;5078442;28;20016;-63
2023/04/07 12:40:53;;;;;;;7.90;1.92;;;9.90;99.90;;;;;;5078359;28;20040;-63
2023/04/07 12:43:19;;;;;;;9.60;1.97;;;9.80;99.90;;;;;;5078487;28;20033;-63
2023/04/07 12:45:45;;;;;;;6.17;2.53;;;10.00;99.90;;;;;;5078510;28;20028;-63
2023/04/07 12:48:10;;;;;;;5.05;1.75;;;10.00;99.90;;;;;;5078354;28;20032;-79
2023/04/07 12:50:36;;;;;;;5.43;2.33;;;10.10;99.90;;;;;;5077929;28;20031;-63
2023/04/07 12:53:04;;;;;;;3.87;2.00;;;10.20;99.90;;;;;;5078210;28;20070;-63
2023/04/07 12:55:32;;;;;;;7.45;2.67;;;10.40;99.90;;;;;;5076876;28;20035;-63